createdAt,value
2023-02-14T00:00:08.739Z,102574.28
2023-02-14T00:02:36.457Z,102572.19
2023-02-14T00:05:04.334Z,102573.16
2023-02-14T00:07:32.329Z,102576.53
2023-02-14T00:09:59.936Z,102576.19
2023-02-14T00:12:27.758Z,102569.25
2023-02-14T00:15:13.200Z,102577.72
2023-02-14T00:17:42.180Z,102576.66
2023-02-14T00:20:10.428Z,102571.78
2023-02-14T00:22:38.058Z,102574.88
2023-02-14T00:25:06.394Z,102572.47
2023-02-14T00:27:33.971Z,102571.16
2023-02-14T00:30:03.077Z,102567.16
2023-02-14T00:32:31.090Z,102571.59
2023-02-14T00:35:00.171Z,102567.78
2023-02-14T00:37:27.907Z,102567.16
2023-02-14T00:39:55.522Z,102566.72
2023-02-14T00:42:23.258Z,102562.75
2023-02-14T00:44:50.944Z,102564.75
2023-02-14T00:47:18.554Z,102564.41
2023-02-14T00:49:46.195Z,102565.59
2023-02-14T00:52:15.226Z,102559.53
2023-02-14T00:54:42.881Z,102564.28
2023-02-14T00:57:10.524Z,102568.94
2023-02-14T00:59:38.121Z,102575.16
2023-02-14T01:02:06.068Z,102572.25
2023-02-14T01:04:33.779Z,102566.34
2023-02-14T01:07:01.360Z,102575.19
2023-02-14T01:09:30.398Z,102582.50
2023-02-14T01:11:57.992Z,102580.13
2023-02-14T01:14:25.585Z,102584.88
2023-02-14T01:16:53.227Z,102580.22
2023-02-14T01:19:20.881Z,102584.34
2023-02-14T01:21:48.542Z,102580.25
2023-02-14T01:24:16.180Z,102590.38
2023-02-14T01:26:45.204Z,102579.84
2023-02-14T01:29:12.803Z,102583.22
2023-02-14T01:31:40.615Z,102586.81
2023-02-14T01:34:08.345Z,102580.91
2023-02-14T01:36:38.278Z,102580.91
2023-02-14T01:39:07.635Z,102572.47
2023-02-14T01:41:37.101Z,102576.38
2023-02-14T01:44:08.321Z,102586.19
2023-02-14T01:46:38.369Z,102576.16
2023-02-14T01:49:10.610Z,102570.97
2023-02-14T01:51:41.082Z,102575.63
2023-02-14T01:54:09.733Z,102571.81
2023-02-14T01:56:39.914Z,102578.59
2023-02-14T01:59:12.011Z,102570.34
2023-02-14T02:01:40.522Z,102568.44
2023-02-14T02:04:11.010Z,102569.59
2023-02-14T02:06:40.728Z,102568.81
2023-02-14T02:09:13.621Z,102565.03
2023-02-14T02:11:42.165Z,102570.75
2023-02-14T02:14:15.169Z,102566.31
2023-02-14T02:17:06.168Z,102567.38
2023-02-14T02:20:07.942Z,102567.09
2023-02-14T02:22:59.146Z,102561.66
2023-02-14T02:25:45.951Z,102572.88
2023-02-14T02:28:29.327Z,102563.56
2023-02-14T02:35:13.651Z,102560.19
2023-02-14T02:37:46.143Z,102544.88
2023-02-14T02:40:27.819Z,102540.75
2023-02-14T02:43:05.175Z,102545.38
2023-02-14T02:46:00.313Z,102539.88
2023-02-14T02:48:33.880Z,102549.72
2023-02-14T02:51:23.776Z,102541.69
2023-02-14T02:53:53.592Z,102544.31
2023-02-14T02:56:41.986Z,102546.00
2023-02-14T02:59:18.412Z,102537.38
2023-02-14T03:01:49.858Z,102543.38
2023-02-14T03:04:35.537Z,102528.50
2023-02-14T03:07:26.355Z,102530.59
2023-02-14T03:09:57.516Z,102521.50
2023-02-14T03:12:48.546Z,102516.66
2023-02-14T03:15:23.430Z,102522.13
2023-02-14T03:18:16.645Z,102526.56
2023-02-14T03:20:50.287Z,102524.22
2023-02-14T03:23:23.259Z,102524.41
2023-02-14T03:26:01.557Z,102520.19
2023-02-14T03:28:34.534Z,102518.50
2023-02-14T03:31:05.767Z,102516.97
2023-02-14T03:33:36.112Z,102516.84
2023-02-14T03:36:08.276Z,102512.75
2023-02-14T03:38:40.853Z,102511.59
2023-02-14T03:41:10.532Z,102513.56
2023-02-14T03:43:42.321Z,102511.13
2023-02-14T03:46:12.236Z,102507.75
2023-02-14T03:48:41.227Z,102502.44
2023-02-14T03:51:10.699Z,102498.44
2023-02-14T03:53:42.277Z,102496.56
2023-02-14T03:56:12.063Z,102498.69
2023-02-14T03:58:41.567Z,102503.31
2023-02-14T04:01:13.610Z,102500.63
2023-02-14T04:03:43.014Z,102498.53
2023-02-14T04:06:10.951Z,102502.22
2023-02-14T04:08:40.114Z,102505.38
2023-02-14T04:11:07.922Z,102503.59
2023-02-14T04:13:36.741Z,102502.22
2023-02-14T04:16:05.055Z,102511.81
2023-02-14T04:18:50.369Z,102495.13
2023-02-14T04:21:18.111Z,102501.88
2023-02-14T04:23:47.116Z,102509.28
2023-02-14T04:26:14.760Z,102507.28
2023-02-14T04:28:42.533Z,102501.78
2023-02-14T04:31:11.435Z,102505.69
2023-02-14T04:33:40.600Z,102499.59
2023-02-14T04:36:08.944Z,102496.19
2023-02-14T04:38:36.593Z,102494.72
2023-02-14T04:41:05.801Z,102488.72
2023-02-14T04:43:33.450Z,102490.63
2023-02-14T04:46:01.100Z,102492.50
2023-02-14T04:48:28.791Z,102484.16
2023-02-14T04:50:56.688Z,102478.56
2023-02-14T04:53:24.618Z,102484.34
2023-02-14T04:55:52.380Z,102479.09
2023-02-14T04:58:21.427Z,102466.59
2023-02-14T05:00:49.463Z,102472.53
2023-02-14T05:03:17.141Z,102469.78
2023-02-14T05:05:44.786Z,102470.66
2023-02-14T05:08:12.392Z,102467.69
2023-02-14T05:10:40.104Z,102466.97
2023-02-14T05:13:07.728Z,102467.28
2023-02-14T05:15:38.541Z,102460.22
2023-02-14T05:18:06.644Z,102460.53
2023-02-14T05:20:34.287Z,102456.53
2023-02-14T05:23:03.479Z,102456.09
2023-02-14T05:25:31.506Z,102451.66
2023-02-14T05:28:00.356Z,102457.38
2023-02-14T05:30:29.017Z,102449.34
2023-02-14T05:32:58.155Z,102458.44
2023-02-14T05:35:25.801Z,102457.38
2023-02-14T05:37:53.568Z,102453.75
2023-02-14T05:40:21.417Z,102457.91
2023-02-14T05:42:49.118Z,102460.53
2023-02-14T05:45:16.960Z,102457.13
2023-02-14T05:47:44.615Z,102453.75
2023-02-14T05:50:14.097Z,102463.69
2023-02-14T05:52:41.730Z,102462.09
2023-02-14T05:55:10.084Z,102461.59
2023-02-14T05:57:38.000Z,102467.59
2023-02-14T06:00:06.712Z,102466.50
2023-02-14T06:02:34.368Z,102462.72
2023-02-14T06:05:02.061Z,102467.41
2023-02-14T06:07:31.445Z,102477.63
2023-02-14T06:09:59.327Z,102475.69
2023-02-14T06:12:26.998Z,102482.00
2023-02-14T06:14:54.665Z,102481.91
2023-02-14T06:17:22.368Z,102485.59
2023-02-14T06:19:50.021Z,102487.50
2023-02-14T06:22:17.658Z,102489.97
2023-02-14T06:24:46.677Z,102480.75
2023-02-14T06:27:14.371Z,102489.00
2023-02-14T06:29:42.258Z,102499.00
2023-02-14T06:32:10.052Z,102494.81
2023-02-14T06:34:37.844Z,102495.16
2023-02-14T06:37:05.467Z,102495.59
2023-02-14T06:39:33.147Z,102500.91
2023-02-14T06:42:02.262Z,102503.03
2023-02-14T06:44:29.872Z,102494.44
2023-02-14T06:46:57.766Z,102503.59
2023-02-14T06:49:25.407Z,102504.78
2023-02-14T06:51:53.034Z,102513.38
2023-02-14T06:54:20.831Z,102510.94
2023-02-14T06:56:48.716Z,102509.84
2023-02-14T06:59:17.958Z,102513.69
2023-02-14T07:01:45.959Z,102504.31
2023-02-14T07:04:13.730Z,102516.19
2023-02-14T07:06:41.528Z,102511.38
2023-02-14T07:09:09.179Z,102513.88
2023-02-14T07:11:39.117Z,102509.66
2023-02-14T07:14:06.897Z,102511.88
2023-02-14T07:16:35.976Z,102514.34
2023-02-14T07:19:03.921Z,102515.38
2023-02-14T07:21:31.616Z,102514.97
2023-02-14T07:23:59.305Z,102525.50
2023-02-14T07:26:27.004Z,102525.28
2023-02-14T07:28:54.696Z,102515.78
2023-02-14T07:31:23.634Z,102511.59
2023-02-14T07:33:53.312Z,102513.50
2023-02-14T07:36:21.216Z,102514.97
2023-02-14T07:38:49.108Z,102516.16
2023-02-14T07:41:17.039Z,102504.22
2023-02-14T07:43:44.976Z,102507.91
2023-02-14T07:46:12.858Z,102506.53
2023-02-14T07:48:40.586Z,102509.38
2023-02-14T07:51:10.051Z,102511.81
2023-02-14T07:53:37.802Z,102513.19
2023-02-14T07:56:05.757Z,102509.47
2023-02-14T07:58:33.488Z,102506.94
2023-02-14T08:01:01.630Z,102507.84
2023-02-14T08:03:29.781Z,102508.16
2023-02-14T08:06:00.280Z,102501.31
2023-02-14T08:08:31.732Z,102499.66
2023-02-14T08:11:00.645Z,102494.22
2023-02-14T08:13:27.587Z,102489.06
2023-02-14T08:16:07.716Z,102492.91
2023-02-14T08:18:38.132Z,102500.72
2023-02-14T08:21:07.827Z,102510.44
2023-02-14T08:23:38.219Z,102520.81
2023-02-14T08:26:06.206Z,102517.53
2023-02-14T08:28:34.953Z,102514.50
2023-02-14T08:31:04.099Z,102521.59
2023-02-14T08:33:32.092Z,102510.31
2023-02-14T08:36:00.287Z,102521.97
2023-02-14T08:38:27.982Z,102521.19
2023-02-14T08:41:01.321Z,102527.53
2023-02-14T08:43:29.348Z,102519.56
2023-02-14T08:45:57.387Z,102521.47
2023-02-14T08:48:26.798Z,102522.59
2023-02-14T08:50:54.762Z,102520.91
2023-02-14T08:53:22.995Z,102520.41
2023-02-14T08:55:50.698Z,102516.78
2023-02-14T08:58:19.834Z,102519.88
2023-02-14T09:00:47.722Z,102511.22
2023-02-14T09:03:15.427Z,102521.66
2023-02-14T09:05:43.154Z,102512.31
2023-02-14T09:08:10.872Z,102509.22
2023-02-14T09:10:38.830Z,102503.34
2023-02-14T09:13:07.160Z,102500.97
2023-02-14T09:15:36.272Z,102499.00
2023-02-14T09:18:04.062Z,102496.75
2023-02-14T09:20:31.871Z,102493.16
2023-02-14T09:22:59.507Z,102496.09
2023-02-14T09:25:27.143Z,102495.97
2023-02-14T09:27:54.830Z,102486.47
2023-02-14T09:30:22.642Z,102490.44
2023-02-14T09:32:53.940Z,102481.59
2023-02-14T09:35:21.626Z,102493.09
2023-02-14T09:38:06.868Z,102491.03
2023-02-14T09:40:35.258Z,102493.78
2023-02-14T09:43:10.979Z,102498.25
2023-02-14T09:45:39.529Z,102499.47
2023-02-14T09:48:13.659Z,102487.44
2023-02-14T09:50:43.748Z,102481.72
2023-02-14T09:53:19.833Z,102481.91
2023-02-14T09:55:53.480Z,102486.41
2023-02-14T09:58:24.169Z,102483.94
2023-02-14T10:00:56.984Z,102479.31
2023-02-14T10:03:41.114Z,102473.72
2023-02-14T10:06:15.236Z,102481.13
2023-02-14T10:08:49.602Z,102480.09
2023-02-14T10:11:24.989Z,102483.31
2023-02-14T10:13:54.619Z,102487.88
2023-02-14T10:16:27.133Z,102482.44
2023-02-14T10:18:58.995Z,102491.13
2023-02-14T10:21:30.825Z,102485.91
2023-02-14T10:24:03.526Z,102478.38
2023-02-14T10:26:35.159Z,102499.47
2023-02-14T10:29:05.019Z,102493.72
2023-02-14T10:31:37.399Z,102491.47
2023-02-14T10:34:09.719Z,102479.75
2023-02-14T10:36:45.810Z,102464.09
2023-02-14T10:39:32.361Z,102468.13
2023-02-14T10:42:06.462Z,102484.09
2023-02-14T10:44:41.680Z,102475.78
2023-02-14T10:47:17.280Z,102473.47
2023-02-14T10:49:50.816Z,102469.84
2023-02-14T10:52:25.121Z,102455.72
2023-02-14T10:54:55.304Z,102456.47
2023-02-14T10:57:27.698Z,102454.97
2023-02-14T10:59:59.304Z,102447.69
2023-02-14T11:02:30.713Z,102456.69
2023-02-14T11:05:00.118Z,102457.91
2023-02-14T11:07:27.965Z,102453.56
2023-02-14T11:09:55.624Z,102459.88
2023-02-14T11:12:33.713Z,102437.63
2023-02-14T11:15:11.302Z,102454.22
2023-02-14T11:17:39.191Z,102436.28
2023-02-14T11:20:24.543Z,102418.34
2023-02-14T11:22:52.327Z,102411.91
2023-02-14T11:25:22.298Z,102405.50
2023-02-14T11:27:53.301Z,102405.75
2023-02-14T11:30:24.299Z,102404.59
2023-02-14T11:32:56.045Z,102405.72
2023-02-14T11:35:34.049Z,102415.47
2023-02-14T11:38:03.577Z,102429.81
2023-02-14T11:40:32.511Z,102424.34
2023-02-14T11:43:17.362Z,102403.97
2023-02-14T11:45:46.186Z,102386.88
2023-02-14T11:48:24.792Z,102378.66
2023-02-14T11:51:03.091Z,102405.69
2023-02-14T11:53:39.266Z,102380.84
2023-02-14T11:56:07.831Z,102379.31
2023-02-14T11:58:37.728Z,102367.97
2023-02-14T12:01:05.705Z,102369.81
2023-02-14T12:03:39.359Z,102370.84
2023-02-14T12:06:08.410Z,102367.94
2023-02-14T12:08:38.969Z,102357.91
2023-02-14T12:11:18.135Z,102364.16
2023-02-14T12:13:53.940Z,102363.03
2023-02-14T12:16:27.384Z,102359.00
2023-02-14T12:18:57.633Z,102367.06
2023-02-14T12:21:49.773Z,102359.91
2023-02-14T12:24:21.785Z,102351.78
2023-02-14T12:26:53.460Z,102333.16
2023-02-14T12:29:26.256Z,102340.88
2023-02-14T12:31:54.749Z,102357.28
2023-02-14T12:34:22.815Z,102355.72
2023-02-14T12:37:03.301Z,102363.91
2023-02-14T12:39:37.621Z,102345.03
2023-02-14T12:42:16.266Z,102348.56
2023-02-14T12:44:51.183Z,102336.69
2023-02-14T12:47:21.649Z,102328.44
2023-02-14T12:50:08.086Z,102326.00
2023-02-14T12:52:50.754Z,102323.38
2023-02-14T12:55:37.539Z,102334.09
2023-02-14T12:58:15.383Z,102342.25
2023-02-14T13:00:50.047Z,102317.94
2023-02-14T13:03:32.411Z,102327.75
2023-02-14T13:06:04.146Z,102298.09
2023-02-14T13:08:48.652Z,102315.03
2023-02-14T13:11:21.250Z,102322.00
2023-02-14T13:13:56.679Z,102323.13
2023-02-14T13:16:29.208Z,102288.16
2023-02-14T13:19:01.106Z,102311.50
2023-02-14T13:21:32.506Z,102294.53
2023-02-14T13:24:12.556Z,102295.09
2023-02-14T13:26:41.660Z,102287.66
2023-02-14T13:29:12.605Z,102273.28
2023-02-14T13:31:41.441Z,102270.59
2023-02-14T13:34:22.942Z,102286.38
2023-02-14T13:36:50.834Z,102276.50
2023-02-14T13:39:25.900Z,102252.09
2023-02-14T13:41:53.543Z,102257.66
2023-02-14T13:44:45.967Z,102261.38
2023-02-14T13:47:21.191Z,102249.53
2023-02-14T13:49:51.496Z,102251.13
2023-02-14T13:52:44.555Z,102268.41
2023-02-14T13:55:19.536Z,102234.94
2023-02-14T13:57:48.233Z,102245.94
2023-02-14T14:00:30.254Z,102224.66
2023-02-14T14:02:58.331Z,102231.13
2023-02-14T14:06:00.276Z,102225.91
2023-02-14T14:08:49.627Z,102239.97
2023-02-14T14:11:53.222Z,102231.66
2023-02-14T14:14:36.314Z,102234.56
2023-02-14T14:17:19.061Z,102239.53
2023-02-14T14:19:47.526Z,102233.31
2023-02-14T14:22:16.448Z,102233.31
2023-02-14T14:24:54.794Z,102219.63
2023-02-14T14:27:26.264Z,102224.66
2023-02-14T14:29:55.686Z,102218.00
2023-02-14T14:32:29.496Z,102216.81
2023-02-14T14:34:58.845Z,102221.00
2023-02-14T14:37:28.634Z,102225.94
2023-02-14T14:39:57.582Z,102211.03
2023-02-14T14:42:28.037Z,102226.66
2023-02-14T14:44:57.743Z,102216.13
2023-02-14T14:47:28.342Z,102225.59
2023-02-14T14:49:59.410Z,102216.66
2023-02-14T14:52:33.226Z,102221.50
2023-02-14T14:55:02.164Z,102237.81
2023-02-14T14:57:31.580Z,102216.56
2023-02-14T15:00:18.757Z,102206.34
2023-02-14T15:03:01.463Z,102199.94
2023-02-14T15:05:32.673Z,102209.53
2023-02-14T15:08:14.902Z,102215.38
2023-02-14T15:10:42.705Z,102188.44
2023-02-14T15:13:31.242Z,102185.91
2023-02-14T15:16:00.384Z,102204.84
2023-02-14T15:18:29.384Z,102203.47
2023-02-14T15:20:57.398Z,102226.66
2023-02-14T15:23:25.866Z,102224.00
2023-02-14T15:25:53.732Z,102222.53
2023-02-14T15:28:30.406Z,102211.88
2023-02-14T15:31:03.096Z,102236.97
2023-02-14T15:33:32.317Z,102232.03
2023-02-14T15:36:03.581Z,102216.94
2023-02-14T15:38:31.803Z,102209.19
2023-02-14T15:41:00.660Z,102214.22
2023-02-14T15:43:32.479Z,102214.03
2023-02-14T15:46:03.034Z,102207.63
2023-02-14T15:48:33.337Z,102212.09
2023-02-14T15:51:05.099Z,102208.59
2023-02-14T15:53:41.939Z,102206.81
2023-02-14T15:56:12.331Z,102198.13
2023-02-14T15:58:41.776Z,102192.06
2023-02-14T16:01:10.406Z,102187.59
2023-02-14T16:03:40.451Z,102195.28
2023-02-14T16:06:08.150Z,102197.22
2023-02-14T16:08:36.985Z,102190.13
2023-02-14T16:11:06.002Z,102194.69
2023-02-14T16:13:35.647Z,102192.13
2023-02-14T16:16:06.569Z,102184.25
2023-02-14T16:18:37.397Z,102187.13
2023-02-14T16:21:13.555Z,102185.72
2023-02-14T16:23:41.949Z,102196.72
2023-02-14T16:26:09.899Z,102187.31
2023-02-14T16:28:38.599Z,102193.06
2023-02-14T16:31:10.562Z,102191.41
2023-02-14T16:33:39.975Z,102184.03
2023-02-14T16:36:10.384Z,102184.06
2023-02-14T16:38:43.589Z,102178.47
2023-02-14T16:41:17.834Z,102188.88
2023-02-14T16:43:46.016Z,102192.41
2023-02-14T16:46:16.546Z,102182.72
2023-02-14T16:48:45.473Z,102197.06
2023-02-14T16:51:14.509Z,102191.19
2023-02-14T16:53:43.374Z,102195.59
2023-02-14T16:56:15.413Z,102187.28
2023-02-14T16:58:43.072Z,102194.97
2023-02-14T17:01:10.758Z,102193.09
2023-02-14T17:03:42.575Z,102193.22
2023-02-14T17:06:14.676Z,102192.91
2023-02-14T17:08:43.171Z,102195.53
2023-02-14T17:11:11.137Z,102197.63
2023-02-14T17:13:41.042Z,102187.34
2023-02-14T17:16:11.083Z,102190.66
2023-02-14T17:18:42.072Z,102184.59
2023-02-14T17:21:09.913Z,102185.16
2023-02-14T17:23:37.558Z,102189.19
2023-02-14T17:26:06.044Z,102176.31
2023-02-14T17:28:33.781Z,102175.34
2023-02-14T17:31:01.719Z,102188.38
2023-02-14T17:33:30.462Z,102189.19
2023-02-14T17:36:05.249Z,102180.50
2023-02-14T17:38:32.895Z,102181.72
2023-02-14T17:41:00.901Z,102176.09
2023-02-14T17:43:28.734Z,102172.94
2023-02-14T17:45:56.691Z,102177.13
2023-02-14T17:48:24.336Z,102181.00
2023-02-14T17:50:52.008Z,102178.69
2023-02-14T17:53:21.245Z,102172.78
2023-02-14T17:55:49.198Z,102170.59
2023-02-14T17:58:16.849Z,102187.19
2023-02-14T18:00:44.499Z,102184.81
2023-02-14T18:03:12.185Z,102185.81
2023-02-14T18:05:39.811Z,102181.34
2023-02-14T18:08:07.915Z,102182.34
2023-02-14T18:10:38.520Z,102180.78
2023-02-14T18:13:06.195Z,102179.19
2023-02-14T18:15:35.103Z,102180.22
2023-02-14T18:18:02.872Z,102173.88
2023-02-14T18:20:30.825Z,102175.28
2023-02-14T18:22:58.451Z,102160.72
2023-02-14T18:25:26.200Z,102163.72
2023-02-14T18:27:55.226Z,102163.66
2023-02-14T18:30:23.157Z,102168.31
2023-02-14T18:32:50.832Z,102169.59
2023-02-14T18:35:18.738Z,102164.00
2023-02-14T18:37:46.423Z,102164.97
2023-02-14T18:40:20.168Z,102154.72
2023-02-14T18:42:48.076Z,102155.25
2023-02-14T18:45:17.354Z,102155.56
2023-02-14T18:47:45.089Z,102157.69
2023-02-14T18:50:12.955Z,102150.53
2023-02-14T18:52:40.637Z,102156.44
2023-02-14T18:55:08.476Z,102148.56
2023-02-14T18:57:36.945Z,102149.13
2023-02-14T19:00:07.961Z,102153.47
2023-02-14T19:02:37.264Z,102140.00
2023-02-14T19:05:05.379Z,102145.44
2023-02-14T19:07:33.010Z,102130.53
2023-02-14T19:10:01.425Z,102131.69
2023-02-14T19:12:32.089Z,102140.25
2023-02-14T19:14:59.763Z,102130.53
2023-02-14T19:17:27.648Z,102143.63
2023-02-14T19:19:57.196Z,102142.38
2023-02-14T19:22:25.225Z,102145.38
2023-02-14T19:24:53.816Z,102141.44
2023-02-14T19:27:22.574Z,102139.38
2023-02-14T19:29:50.602Z,102134.03
2023-02-14T19:32:18.643Z,102138.28
2023-02-14T19:34:46.512Z,102135.84
2023-02-14T19:37:15.712Z,102138.09
2023-02-14T19:39:44.726Z,102139.50
2023-02-14T19:42:12.349Z,102129.84
2023-02-14T19:44:40.473Z,102134.19
2023-02-14T19:47:25.278Z,102129.44
2023-02-14T19:49:55.919Z,102124.66
2023-02-14T19:52:26.622Z,102124.66
2023-02-14T19:54:55.443Z,102119.97
2023-02-14T19:57:23.086Z,102117.91
2023-02-14T19:59:50.776Z,102114.84
2023-02-14T20:02:19.879Z,102116.44
2023-02-14T20:04:47.560Z,102112.94
2023-02-14T20:07:16.764Z,102115.13
2023-02-14T20:09:45.914Z,102115.44
2023-02-14T20:12:14.064Z,102101.69
2023-02-14T20:14:51.245Z,102108.38
2023-02-14T20:17:20.533Z,102099.31
2023-02-14T20:19:48.932Z,102094.06
2023-02-14T20:22:16.568Z,102096.03
2023-02-14T20:24:45.996Z,102093.25
2023-02-14T20:27:13.673Z,102089.47
2023-02-14T20:29:43.249Z,102086.69
2023-02-14T20:32:10.901Z,102090.72
2023-02-14T20:34:38.545Z,102090.22
2023-02-14T20:37:06.205Z,102085.50
2023-02-14T20:39:35.888Z,102072.66
2023-02-14T20:42:06.039Z,102070.91
2023-02-14T20:44:33.857Z,102073.19
2023-02-14T20:47:01.726Z,102071.38
2023-02-14T20:49:31.112Z,102071.53
2023-02-14T20:51:59.794Z,102070.94
2023-02-14T20:54:28.957Z,102068.63
2023-02-14T20:56:58.080Z,102071.44
2023-02-14T20:59:28.982Z,102071.47
2023-02-14T21:01:57.417Z,102064.78
2023-02-14T21:04:25.550Z,102069.84
2023-02-14T21:06:53.418Z,102059.50
2023-02-14T21:09:21.655Z,102059.13
2023-02-14T21:11:50.252Z,102065.41
2023-02-14T21:14:18.214Z,102053.97
2023-02-14T21:16:47.292Z,102058.56
2023-02-14T21:19:14.971Z,102048.44
2023-02-14T21:21:42.886Z,102054.44
2023-02-14T21:24:12.406Z,102049.66
2023-02-14T21:26:40.430Z,102048.84
2023-02-14T21:29:09.383Z,102051.16
2023-02-14T21:31:37.657Z,102040.97
2023-02-14T21:34:06.874Z,102041.72
2023-02-14T21:36:36.630Z,102053.78
2023-02-14T21:39:05.829Z,102049.97
2023-02-14T21:41:33.911Z,102044.88
2023-02-14T21:44:02.756Z,102050.72
2023-02-14T21:46:31.383Z,102046.88
2023-02-14T21:49:16.779Z,102048.53
2023-02-14T21:51:46.934Z,102046.47
2023-02-14T21:54:15.379Z,102053.91
2023-02-14T21:56:43.856Z,102058.03
2023-02-14T21:59:12.321Z,102054.16
2023-02-14T22:01:42.518Z,102048.34
2023-02-14T22:04:12.268Z,102060.72
2023-02-14T22:06:41.835Z,102064.94
2023-02-14T22:09:12.326Z,102053.09
2023-02-14T22:11:39.980Z,102058.00
2023-02-14T22:14:07.694Z,102042.75
2023-02-14T22:16:36.864Z,102050.19
2023-02-14T22:19:05.273Z,102051.78
2023-02-14T22:21:33.480Z,102047.16
2023-02-14T22:24:02.129Z,102045.97
2023-02-14T22:26:33.732Z,102038.06
2023-02-14T22:29:03.023Z,102045.47
2023-02-14T22:31:34.058Z,102041.06
2023-02-14T22:34:01.784Z,102039.97
2023-02-14T22:36:29.705Z,102047.53
2023-02-14T22:38:57.405Z,102032.53
2023-02-14T22:41:25.928Z,102035.88
2023-02-14T22:43:55.463Z,102047.44
2023-02-14T22:46:24.979Z,102039.22
2023-02-14T22:48:53.421Z,102042.50
2023-02-14T22:51:24.187Z,102032.03
2023-02-14T22:53:53.269Z,102038.72
2023-02-14T22:56:22.624Z,102035.63
2023-02-14T22:58:53.685Z,102035.78
2023-02-14T23:01:24.065Z,102039.66
2023-02-14T23:03:54.784Z,102030.31
2023-02-14T23:06:22.986Z,102030.66
2023-02-14T23:08:50.728Z,102030.13
2023-02-14T23:11:20.041Z,102029.00
2023-02-14T23:14:05.421Z,102031.44
2023-02-14T23:16:52.090Z,102030.09
2023-02-14T23:19:39.336Z,102033.03
2023-02-14T23:22:09.457Z,102029.97
2023-02-14T23:24:37.344Z,102026.59
2023-02-14T23:27:05.575Z,102031.44
2023-02-14T23:29:33.706Z,102033.56
2023-02-14T23:32:03.004Z,102030.38
2023-02-14T23:34:32.541Z,102024.34
2023-02-14T23:37:00.443Z,102022.66
2023-02-14T23:39:28.378Z,102024.28
2023-02-14T23:41:56.122Z,102015.75
2023-02-14T23:44:25.546Z,102018.38
2023-02-14T23:46:55.527Z,102012.91
2023-02-14T23:49:25.601Z,102010.69
2023-02-14T23:51:54.901Z,102012.41
2023-02-14T23:54:23.475Z,102016.13
2023-02-14T23:56:52.265Z,102016.66
2023-02-14T23:59:20.683Z,102016.34
